Terminal Aerodrome Forecast
Issued by NWS Twin Cities, MN

Home | Current Version | Previous Version | Graphics & Text | Print | Product List | Glossary On
Versions: 1 2 3 4 5 6 7 8 9 10 11 12 13 14 15
000
FTUS43 KMPX 151406 AAA
TAFSTC
TAF AMD
KSTC 151406Z 1514/1612 32009KT P6SM SCT009
      TEMPO 1514/1515 BKN009
     FM151700 29012KT P6SM FEW250
     FM152200 26008KT P6SM BKN090
     FM160100 26004KT P6SM SCT150=

USA.gov is the U.S. government's official web portal to all federal, state and local government web resources and services.